Time;durP1;ratioP1;P1;durP2;ratioP2;P2;SDS_P1;SDS_P2;PMS_P1;PMS_P2;Temp;Humidity;BMP_temperature;BMP_pressure;BME280_temperature;BME280_humidity;BME280_pressure;Samples;Min_cycle;Max_cycle;Signal;HPM_P1;HPM_P2
2022/06/19 00:01:48;;;;;;;27.00;6.63;;;;;;;;;;5045527;28;20053;-65
2022/06/19 00:04:16;;;;;;;44.55;9.00;;;;;;;;;;5045724;28;20457;-63
2022/06/19 00:06:42;;;;;;;42.17;8.35;;;;;;;;;;5046718;28;20044;-63
2022/06/19 00:09:09;;;;;;;33.55;9.95;;;;;;;;;;5046693;28;20519;-64
2022/06/19 00:11:37;;;;;;;26.25;7.93;;;;;;;;;;5047231;28;20053;-64
2022/06/19 00:14:04;;;;;;;57.75;10.70;;;;;;;;;;5046810;28;20175;-64
2022/06/19 00:16:30;;;;;;;33.92;8.30;;;;;;;;;;5049613;28;20049;-64
2022/06/19 00:18:57;;;;;;;50.10;11.25;;;;;;;;;;5048282;28;20041;-65
2022/06/19 00:21:24;;;;;;;35.60;10.70;;;;;;;;;;5047537;28;20048;-65
2022/06/19 00:23:51;;;;;;;31.95;9.05;;;;;;;;;;5046414;28;20091;-65
2022/06/19 00:26:17;;;;;;;31.33;7.25;;;;;;;;;;5047144;28;20035;-66
2022/06/19 00:28:47;;;;;;;32.00;7.70;;;;;;;;;;5047750;28;20041;-65
2022/06/19 00:31:14;;;;;;;43.08;8.57;;;;;;;;;;5051597;28;20059;-65
2022/06/19 00:33:41;;;;;;;23.77;6.90;;;;;;;;;;5045825;28;20069;-64
2022/06/19 00:36:08;;;;;;;34.72;7.40;;;;;;;;;;5045961;28;20496;-65
2022/06/19 00:38:34;;;;;;;21.92;5.55;;;;;;;;;;5050374;28;20091;-62
2022/06/19 00:41:02;;;;;;;38.22;7.40;;;;;;;;;;5046740;28;20072;-63
2022/06/19 00:43:29;;;;;;;46.80;8.02;;;;;;;;;;5050156;28;20041;-63
2022/06/19 00:46:02;;;;;;;24.27;6.50;;;;;;;;;;5048422;28;20041;-62
2022/06/19 00:48:30;;;;;;;;;;;;;;;;;;5046775;28;20051;-61
2022/06/19 00:50:59;;;;;;;40.80;6.93;;;;;;;;;;5047057;28;19928;-66
2022/06/19 00:53:32;;;;;;;19.77;5.93;;;;;;;;;;5046720;28;20107;-66
2022/06/19 00:55:59;;;;;;;52.08;7.68;;;;;;;;;;5046177;28;20045;-65
2022/06/19 00:58:29;;;;;;;33.80;6.32;;;;;;;;;;5050066;28;20040;-65
2022/06/19 01:00:58;;;;;;;37.90;7.10;;;;;;;;;;5048022;28;20052;-65
2022/06/19 01:03:29;;;;;;;25.52;6.25;;;;;;;;;;5045196;28;20048;-65
2022/06/19 01:05:56;;;;;;;20.10;6.30;;;;;;;;;;5046031;28;20090;-66
2022/06/19 01:08:23;;;;;;;19.08;5.90;;;;;;;;;;5047002;28;20041;-68
2022/06/19 01:10:51;;;;;;;60.53;9.02;;;;;;;;;;5048133;28;20034;-65
2022/06/19 01:13:20;;;;;;;21.52;5.85;;;;;;;;;;5050778;28;20049;-64
2022/06/19 01:15:47;;;;;;;19.60;5.65;;;;;;;;;;5046669;28;20489;-65
2022/06/19 01:18:14;;;;;;;35.78;7.20;;;;;;;;;;5045239;28;20041;-64
2022/06/19 01:20:41;;;;;;;21.23;5.30;;;;;;;;;;5046378;28;20045;-63
2022/06/19 01:23:20;;;;;;;15.15;5.45;;;;;;;;;;5046085;28;20061;-63
2022/06/19 01:25:49;;;;;;;57.92;8.70;;;;;;;;;;5046388;28;20053;-63
2022/06/19 01:28:46;;;;;;;21.13;6.53;;;;;;;;;;5046746;28;20052;-63
2022/06/19 01:31:17;;;;;;;45.00;8.07;;;;;;;;;;5050119;28;20045;-63
2022/06/19 01:33:46;;;;;;;28.75;7.63;;;;;;;;;;5045171;28;20120;-65
2022/06/19 01:36:14;;;;;;;32.08;7.78;;;;;;;;;;5045421;28;20040;-65
2022/06/19 01:38:42;;;;;;;30.73;8.45;;;;;;;;;;5045526;28;20045;-64
2022/06/19 01:41:14;;;;;;;40.05;8.82;;;;;;;;;;5046561;28;20050;-63
2022/06/19 01:43:41;;;;;;;40.95;8.80;;;;;;;;;;5047602;28;20056;-66
2022/06/19 01:46:08;;;;;;;32.50;8.25;;;;;;;;;;5049731;28;20110;-65
2022/06/19 01:48:36;;;;;;;36.92;8.80;;;;;;;;;;5047322;28;20064;-65
2022/06/19 01:51:05;;;;;;;39.55;9.48;;;;;;;;;;5049952;28;20048;-66
2022/06/19 01:53:40;;;;;;;38.58;9.48;;;;;;;;;;5048809;28;20512;-63
2022/06/19 01:56:08;;;;;;;33.15;8.75;;;;;;;;;;5050246;28;20132;-64
2022/06/19 01:58:37;;;;;;;38.83;9.52;;;;;;;;;;5051941;28;20045;-64
2022/06/19 02:01:05;;;;;;;42.92;11.30;;;;;;;;;;5052528;28;20041;-63
2022/06/19 02:03:44;;;;;;;65.47;12.20;;;;;;;;;;5048548;28;20091;-63
2022/06/19 02:06:12;;;;;;;46.47;11.52;;;;;;;;;;5050436;28;20144;-64
2022/06/19 02:08:40;;;;;;;63.75;12.90;;;;;;;;;;5049181;28;20504;-63
2022/06/19 02:11:06;;;;;;;43.03;10.45;;;;;;;;;;5049337;28;20037;-63
2022/06/19 02:13:34;;;;;;;71.57;15.07;;;;;;;;;;5051663;28;20588;-64
2022/06/19 02:16:02;;;;;;;60.38;13.40;;;;;;;;;;5051886;28;20044;-63
2022/06/19 02:18:31;;;;;;;46.47;12.02;;;;;;;;;;5049247;28;20497;-64
2022/06/19 02:20:58;;;;;;;46.42;11.00;;;;;;;;;;5048906;28;20039;-63
2022/06/19 02:23:27;;;;;;;56.00;11.05;;;;;;;;;;5049037;28;20440;-64
2022/06/19 02:25:54;;;;;;;57.33;11.77;;;;;;;;;;5048469;28;20111;-65
2022/06/19 02:28:21;;;;;;;51.63;10.20;;;;;;;;;;5053692;28;20045;-66
2022/06/19 02:30:48;;;;;;;64.07;10.35;;;;;;;;;;5048636;28;20033;-66
2022/06/19 02:33:16;;;;;;;37.75;9.07;;;;;;;;;;5051757;28;20112;-65
2022/06/19 02:35:44;;;;;;;39.47;8.82;;;;;;;;;;5048325;28;20758;-66
2022/06/19 02:38:15;;;;;;;42.90;8.60;;;;;;;;;;5048246;28;20045;-66
2022/06/19 02:40:48;;;;;;;30.73;7.95;;;;;;;;;;5049947;28;20752;-66
2022/06/19 02:43:19;;;;;;;32.05;8.13;;;;;;;;;;5053294;28;20044;-66
2022/06/19 02:45:45;;;;;;;45.45;8.60;;;;;;;;;;5048188;28;20059;-67
2022/06/19 02:48:22;;;;;;;38.13;7.55;;;;;;;;;;5048178;28;20402;-64
2022/06/19 02:50:49;;;;;;;59.38;9.80;;;;;;;;;;5047513;28;20037;-65
2022/06/19 02:53:17;;;;;;;24.70;7.47;;;;;;;;;;5048360;28;20040;-64
2022/06/19 02:55:43;;;;;;;40.33;7.97;;;;;;;;;;5050174;28;20410;-65
2022/06/19 02:58:10;;;;;;;58.88;9.82;;;;;;;;;;5051955;28;20044;-64
2022/06/19 03:00:37;;;;;;;41.45;8.77;;;;;;;;;;5047754;28;20459;-65
2022/06/19 03:03:17;;;;;;;48.97;9.50;;;;;;;;;;5047084;28;20045;-66
2022/06/19 03:05:44;;;;;;;41.83;8.35;;;;;;;;;;5048689;28;20037;-66
2022/06/19 03:08:10;;;;;;;42.45;8.07;;;;;;;;;;5047673;28;20042;-65
2022/06/19 03:10:37;;;;;;;63.72;9.65;;;;;;;;;;5050374;28;20049;-64
2022/06/19 03:13:03;;;;;;;73.57;10.15;;;;;;;;;;5050795;28;20106;-63
2022/06/19 03:15:30;;;;;;;47.42;8.93;;;;;;;;;;5052482;28;20045;-63
2022/06/19 03:17:57;;;;;;;57.90;8.32;;;;;;;;;;5047544;28;20047;-64
2022/06/19 03:20:25;;;;;;;36.08;6.90;;;;;;;;;;5047923;28;20115;-67
2022/06/19 03:22:51;;;;;;;45.08;8.32;;;;;;;;;;5048382;28;20030;-66
2022/06/19 03:25:19;;;;;;;21.17;6.15;;;;;;;;;;5048590;28;20444;-70
2022/06/19 03:27:46;;;;;;;57.05;8.23;;;;;;;;;;5047479;28;20053;-67
2022/06/19 03:30:13;;;;;;;33.40;7.03;;;;;;;;;;5048382;28;20037;-67
2022/06/19 03:32:40;;;;;;;27.63;6.32;;;;;;;;;;5048646;28;20037;-70
2022/06/19 03:35:07;;;;;;;42.83;7.22;;;;;;;;;;5047605;28;20040;-75
2022/06/19 03:37:34;;;;;;;41.83;6.75;;;;;;;;;;5050449;28;20049;-75
2022/06/19 03:40:01;;;;;;;29.95;6.35;;;;;;;;;;5050304;28;20095;-67
2022/06/19 03:42:27;;;;;;;42.08;6.82;;;;;;;;;;5047084;28;20055;-65
2022/06/19 03:44:54;;;;;;;50.85;7.30;;;;;;;;;;5047610;28;20045;-66
2022/06/19 03:47:22;;;;;;;25.27;5.60;;;;;;;;;;5047604;28;20118;-66
2022/06/19 03:49:50;;;;;;;75.38;9.55;;;;;;;;;;5049027;28;20502;-65
2022/06/19 03:52:17;;;;;;;23.65;5.93;;;;;;;;;;5052447;28;20036;-66
2022/06/19 03:54:43;;;;;;;36.35;6.40;;;;;;;;;;5047498;28;20044;-67
2022/06/19 03:57:13;;;;;;;36.28;6.30;;;;;;;;;;5047037;28;20045;-66
2022/06/19 03:59:40;;;;;;;36.38;6.38;;;;;;;;;;5047227;28;20029;-66
2022/06/19 04:02:09;;;;;;;28.73;5.82;;;;;;;;;;5048089;28;20119;-66
2022/06/19 04:04:36;;;;;;;51.80;7.25;;;;;;;;;;5049555;28;20156;-66
2022/06/19 04:07:03;;;;;;;54.08;7.60;;;;;;;;;;5050094;28;20509;-66
2022/06/19 04:09:30;;;;;;;31.33;6.30;;;;;;;;;;5047442;28;20098;-66
2022/06/19 04:11:56;;;;;;;48.13;7.13;;;;;;;;;;5046113;28;20044;-66
2022/06/19 04:14:23;;;;;;;45.17;6.95;;;;;;;;;;5047289;28;20059;-67
2022/06/19 04:16:49;;;;;;;42.70;6.10;;;;;;;;;;5047803;28;20075;-67
2022/06/19 04:19:16;;;;;;;68.75;8.25;;;;;;;;;;5050613;28;20049;-65
2022/06/19 04:21:44;;;;;;;40.85;6.60;;;;;;;;;;5046951;28;20041;-66
2022/06/19 04:24:12;;;;;;;67.70;8.13;;;;;;;;;;5046473;28;20576;-65
2022/06/19 04:26:39;;;;;;;40.63;6.28;;;;;;;;;;5047536;28;20032;-65
2022/06/19 04:29:06;;;;;;;27.90;5.97;;;;;;;;;;5046579;28;20045;-66
2022/06/19 04:31:33;;;;;;;47.90;5.88;;;;;;;;;;5049679;28;20045;-67
2022/06/19 04:34:00;;;;;;;77.93;8.10;;;;;;;;;;5048426;28;20056;-64
2022/06/19 04:36:28;;;;;;;30.25;5.20;;;;;;;;;;5046747;28;20378;-63
2022/06/19 04:38:56;;;;;;;37.20;5.82;;;;;;;;;;5045142;28;20516;-62
2022/06/19 04:41:36;;;;;;;34.85;5.53;;;;;;;;;;5047037;28;20033;-63
2022/06/19 04:44:03;;;;;;;46.92;6.32;;;;;;;;;;5046275;28;20037;-63
2022/06/19 04:46:30;;;;;;;56.78;7.05;;;;;;;;;;5045754;28;20067;-63
2022/06/19 04:48:57;;;;;;;97.72;8.45;;;;;;;;;;5048079;28;20052;-65
2022/06/19 04:51:24;;;;;;;26.08;4.65;;;;;;;;;;5047578;28;20044;-63
2022/06/19 04:53:53;;;;;;;50.67;7.30;;;;;;;;;;5047049;28;20041;-64
2022/06/19 04:56:20;;;;;;;36.95;5.93;;;;;;;;;;5046280;28;20041;-65
2022/06/19 04:58:47;;;;;;;43.78;6.15;;;;;;;;;;5047717;28;20044;-64
2022/06/19 05:01:20;;;;;;;35.80;5.50;;;;;;;;;;5050945;28;20041;-63
2022/06/19 05:03:46;;;;;;;25.13;5.03;;;;;;;;;;5046213;28;20037;-62
2022/06/19 05:06:13;;;;;;;45.08;6.32;;;;;;;;;;5046377;28;20544;-63
2022/06/19 05:08:40;;;;;;;94.43;9.95;;;;;;;;;;5044232;28;20048;-62
2022/06/19 05:11:08;;;;;;;47.47;5.97;;;;;;;;;;5044993;28;20156;-63
2022/06/19 05:13:35;;;;;;;54.88;6.82;;;;;;;;;;5047171;28;20041;-62
2022/06/19 05:16:12;;;;;;;56.33;6.60;;;;;;;;;;5046836;28;20130;-64
2022/06/19 05:18:39;;;;;;;41.42;5.97;;;;;;;;;;5044482;28;20517;-65
2022/06/19 05:21:06;;;;;;;53.50;6.72;;;;;;;;;;5044736;28;20048;-65
2022/06/19 05:23:34;;;;;;;36.13;5.45;;;;;;;;;;5047283;28;20045;-64
2022/06/19 05:26:05;;;;;;;42.05;6.50;;;;;;;;;;5050584;28;20041;-63
2022/06/19 05:28:33;;;;;;;50.33;6.13;;;;;;;;;;5053643;28;20409;-66
2022/06/19 05:31:00;;;;;;;29.75;4.80;;;;;;;;;;5053127;28;20052;-66
2022/06/19 05:33:28;;;;;;;22.70;4.63;;;;;;;;;;5051419;28;20107;-65
2022/06/19 05:35:54;;;;;;;46.30;6.20;;;;;;;;;;5051405;28;20044;-66
2022/06/19 05:38:21;;;;;;;27.83;4.93;;;;;;;;;;5051217;28;20037;-67
2022/06/19 05:40:51;;;;;;;35.38;5.43;;;;;;;;;;5051093;28;20041;-64
2022/06/19 05:43:19;;;;;;;37.55;5.68;;;;;;;;;;5054912;28;20669;-65
2022/06/19 05:45:50;;;;;;;46.90;5.72;;;;;;;;;;5049872;28;20045;-66
2022/06/19 05:48:17;;;;;;;27.88;4.55;;;;;;;;;;5049653;28;20524;-69
2022/06/19 05:50:43;;;;;;;46.25;5.68;;;;;;;;;;5050122;28;20136;-65
2022/06/19 05:53:11;;;;;;;27.60;5.32;;;;;;;;;;5049923;28;20038;-65
2022/06/19 05:55:37;;;;;;;38.67;5.60;;;;;;;;;;5052546;28;20045;-67
2022/06/19 05:58:04;;;;;;;38.63;5.63;;;;;;;;;;5052449;28;20039;-65
2022/06/19 06:00:31;;;;;;;24.70;4.85;;;;;;;;;;5050229;28;20040;-64
2022/06/19 06:02:58;;;;;;;41.58;6.05;;;;;;;;;;5045636;28;20098;-64
2022/06/19 06:05:24;;;;;;;45.88;6.00;;;;;;;;;;5049591;28;20044;-65
2022/06/19 06:07:51;;;;;;;34.75;5.35;;;;;;;;;;5049924;28;20045;-64
2022/06/19 06:10:17;;;;;;;29.35;4.80;;;;;;;;;;5054386;28;20086;-65
2022/06/19 06:12:44;;;;;;;31.73;4.85;;;;;;;;;;5049132;28;20041;-64
2022/06/19 06:15:11;;;;;;;51.80;6.13;;;;;;;;;;5048006;28;20053;-64
2022/06/19 06:17:37;;;;;;;208.93;18.70;;;;;;;;;;5049589;28;20041;-65
2022/06/19 06:20:04;;;;;;;77.30;7.05;;;;;;;;;;5049083;28;20411;-65
2022/06/19 06:22:31;;;;;;;54.75;5.93;;;;;;;;;;5052891;28;20478;-65
2022/06/19 06:24:58;;;;;;;36.30;5.45;;;;;;;;;;5046795;28;20037;-65
2022/06/19 06:27:25;;;;;;;30.73;4.88;;;;;;;;;;5047242;28;20045;-65
2022/06/19 06:29:51;;;;;;;47.35;6.13;;;;;;;;;;5049080;28;20041;-65
2022/06/19 06:32:18;;;;;;;19.88;4.38;;;;;;;;;;5049310;28;20041;-65
2022/06/19 06:34:44;;;;;;;43.70;5.88;;;;;;;;;;5049817;28;20059;-65
2022/06/19 06:37:11;;;;;;;41.15;5.45;;;;;;;;;;5052387;28;20041;-65
2022/06/19 06:39:37;;;;;;;41.42;5.47;;;;;;;;;;5048473;28;20048;-65
2022/06/19 06:42:04;;;;;;;37.22;5.78;;;;;;;;;;5048571;28;20099;-65
2022/06/19 06:44:31;;;;;;;54.08;5.97;;;;;;;;;;5047699;28;20036;-65
2022/06/19 06:46:59;;;;;;;35.17;5.22;;;;;;;;;;5050046;28;20044;-65
2022/06/19 06:49:26;;;;;;;48.58;5.85;;;;;;;;;;5052403;28;20120;-64
2022/06/19 06:51:53;;;;;;;29.63;5.15;;;;;;;;;;5049997;28;20132;-64
2022/06/19 06:54:20;;;;;;;32.80;4.97;;;;;;;;;;5049128;28;20497;-65
2022/06/19 06:56:46;;;;;;;45.22;5.60;;;;;;;;;;5049202;28;20079;-64
2022/06/19 06:59:13;;;;;;;33.00;5.18;;;;;;;;;;5049095;28;20700;-65
2022/06/19 07:01:40;;;;;;;61.97;7.00;;;;;;;;;;5050876;28;20455;-65
2022/06/19 07:04:07;;;;;;;41.65;5.60;;;;;;;;;;5051085;28;20049;-65
2022/06/19 07:06:34;;;;;;;26.05;4.68;;;;;;;;;;5048446;28;20037;-65
2022/06/19 07:09:02;;;;;;;35.65;5.10;;;;;;;;;;5047748;28;20409;-65
2022/06/19 07:11:33;;;;;;;52.25;6.47;;;;;;;;;;5048397;28;20036;-65
2022/06/19 07:14:00;;;;;;;25.35;4.40;;;;;;;;;;5048156;28;20206;-65
2022/06/19 07:16:26;;;;;;;18.27;4.13;;;;;;;;;;5052350;28;20102;-65
2022/06/19 07:18:53;;;;;;;37.10;5.45;;;;;;;;;;5048320;28;20041;-65
2022/06/19 07:21:21;;;;;;;23.42;4.40;;;;;;;;;;5047835;28;20049;-65
2022/06/19 07:23:47;;;;;;;52.45;6.18;;;;;;;;;;5047909;28;20029;-65
2022/06/19 07:26:16;;;;;;;29.50;5.03;;;;;;;;;;5048160;28;20493;-65
2022/06/19 07:28:43;;;;;;;38.50;6.78;;;;;;;;;;5050161;28;20045;-65
2022/06/19 07:31:10;;;;;;;37.47;5.55;;;;;;;;;;5051027;28;20122;-65
2022/06/19 07:33:37;;;;;;;60.33;7.53;;;;;;;;;;5048797;28;20043;-65
2022/06/19 07:36:05;;;;;;;52.70;6.50;;;;;;;;;;5051245;28;20425;-64
2022/06/19 07:38:31;;;;;;;22.98;4.40;;;;;;;;;;5047832;28;20044;-64
2022/06/19 07:40:58;;;;;;;41.47;5.15;;;;;;;;;;5048057;28;20083;-66
2022/06/19 07:43:26;;;;;;;17.40;4.05;;;;;;;;;;5052893;28;20037;-65
2022/06/19 07:45:53;;;;;;;36.58;5.10;;;;;;;;;;5047453;28;20045;-66
2022/06/19 07:51:05;;;;;;;34.40;5.53;;;;;;;;;;5047167;28;20036;-65
2022/06/19 07:53:32;;;;;;;44.90;5.28;;;;;;;;;;5046458;28;20102;-65
2022/06/19 07:55:58;;;;;;;33.92;5.15;;;;;;;;;;5047293;28;20045;-64
2022/06/19 07:58:25;;;;;;;109.18;10.48;;;;;;;;;;5052730;28;20069;-65
2022/06/19 08:00:52;;;;;;;32.33;5.10;;;;;;;;;;5048519;28;20095;-63
2022/06/19 08:03:19;;;;;;;26.23;4.60;;;;;;;;;;5047250;28;20045;-64
2022/06/19 08:05:46;;;;;;;26.40;4.63;;;;;;;;;;5047028;28;20029;-65
2022/06/19 08:08:18;;;;;;;25.95;4.57;;;;;;;;;;5048039;28;20405;-65
2022/06/19 08:10:45;;;;;;;55.23;6.77;;;;;;;;;;5049131;28;20033;-65
2022/06/19 08:13:13;;;;;;;28.05;4.45;;;;;;;;;;5050882;28;20076;-65
2022/06/19 08:15:40;;;;;;;45.97;5.97;;;;;;;;;;5050994;28;20045;-65
2022/06/19 08:18:09;;;;;;;43.35;5.75;;;;;;;;;;5046538;28;20086;-64
2022/06/19 08:20:36;;;;;;;150.75;13.48;;;;;;;;;;5046933;28;20037;-64
2022/06/19 08:23:03;;;;;;;48.60;5.93;;;;;;;;;;5047415;28;20033;-65
2022/06/19 08:25:30;;;;;;;30.85;4.70;;;;;;;;;;5051063;28;20048;-66
2022/06/19 08:27:57;;;;;;;30.73;4.72;;;;;;;;;;5063745;28;20417;-64
2022/06/19 08:30:25;;;;;;;57.75;6.53;;;;;;;;;;5046474;28;20378;-65
2022/06/19 08:32:57;;;;;;;37.58;5.80;;;;;;;;;;5050398;28;20033;-65
2022/06/19 08:35:24;;;;;;;91.45;9.18;;;;;;;;;;5047123;28;20090;-66
2022/06/19 08:37:53;;;;;;;84.32;8.05;;;;;;;;;;5047801;28;20048;-66
2022/06/19 08:40:31;;;;;;;34.42;6.28;;;;;;;;;;5051304;28;20053;-66
2022/06/19 08:43:12;;;;;;;16.67;4.68;;;;;;;;;;5046656;28;20106;-65
2022/06/19 08:45:54;;;;;;;27.98;4.57;;;;;;;;;;5046720;28;20053;-65
2022/06/19 08:48:21;;;;;;;46.05;5.70;;;;;;;;;;5046213;28;20041;-64
2022/06/19 08:51:08;;;;;;;16.63;3.95;;;;;;;;;;5046618;28;20048;-65
2022/06/19 08:53:51;;;;;;;36.35;5.07;;;;;;;;;;5050459;28;20041;-67
2022/06/19 08:56:53;;;;;;;19.55;4.53;;;;;;;;;;5046509;28;20047;-67
2022/06/19 08:59:26;;;;;;;269.17;24.02;;;;;;;;;;5005514;28;20049;-68
2022/06/19 09:01:52;;;;;;;49.25;6.40;;;;;;;;;;5005871;28;20049;-75
2022/06/19 09:07:43;;;;;;;28.77;4.43;;;;;;;;;;5003458;28;20610;-71
2022/06/19 09:10:12;;;;;;;49.75;6.28;;;;;;;;;;5009442;28;20101;-70
2022/06/19 09:12:57;;;;;;;47.92;5.97;;;;;;;;;;5005358;28;20042;-69
2022/06/19 09:15:31;;;;;;;49.15;8.65;;;;;;;;;;5005083;28;20049;-70
2022/06/19 09:18:02;;;;;;;80.95;8.95;;;;;;;;;;5004549;28;20117;-71
2022/06/19 09:20:35;;;;;;;54.43;6.10;;;;;;;;;;5008222;28;20046;-71
2022/06/19 09:23:01;;;;;;;329.30;29.17;;;;;;;;;;4997001;28;20129;-72
2022/06/19 09:25:28;;;;;;;32.88;5.85;;;;;;;;;;5008531;28;20050;-71
2022/06/19 09:27:55;;;;;;;21.70;4.57;;;;;;;;;;5006416;28;20057;-72
2022/06/19 09:30:47;;;;;;;20.17;4.45;;;;;;;;;;5004770;28;20108;-72
2022/06/19 09:33:17;;;;;;;47.47;6.03;;;;;;;;;;4948792;28;20063;-72
2022/06/19 09:35:47;;;;;;;68.18;6.70;;;;;;;;;;4964504;28;20142;-71
2022/06/19 09:38:15;;;;;;;15.52;4.50;;;;;;;;;;4986301;28;20047;-71
2022/06/19 09:40:45;;;;;;;26.25;4.53;;;;;;;;;;4988541;28;20454;-69
2022/06/19 09:43:22;;;;;;;29.77;5.40;;;;;;;;;;4987840;28;20056;-69
2022/06/19 09:46:17;;;;;;;37.05;5.25;;;;;;;;;;4985865;28;20059;-70
2022/06/19 09:49:03;;;;;;;33.58;5.05;;;;;;;;;;4983030;28;20145;-69
2022/06/19 09:51:32;;;;;;;37.55;5.55;;;;;;;;;;4985310;28;20454;-62
2022/06/19 09:54:08;;;;;;;34.10;5.97;;;;;;;;;;4985611;28;20050;-72
2022/06/19 09:56:57;;;;;;;39.63;5.65;;;;;;;;;;4981386;28;20054;-72
2022/06/19 09:59:24;;;;;;;32.13;5.90;;;;;;;;;;4982420;28;20084;-72
2022/06/19 10:01:56;;;;;;;32.28;5.38;;;;;;;;;;4985140;28;20672;-71
2022/06/19 10:04:23;;;;;;;;;;;;;;;;;;4996830;28;20499;-72
2022/06/19 10:06:57;;;;;;;146.88;12.73;;;;;;;;;;4986446;28;20294;-68
2022/06/19 10:09:33;;;;;;;44.20;5.18;;;;;;;;;;5002193;28;20063;-59
2022/06/19 10:12:01;;;;;;;37.47;4.85;;;;;;;;;;5050644;28;20036;-63
2022/06/19 10:14:34;;;;;;;26.67;5.53;;;;;;;;;;5050683;28;20049;-63
2022/06/19 10:17:03;;;;;;;41.00;6.80;;;;;;;;;;5049360;28;20061;-64
2022/06/19 10:19:37;;;;;;;72.88;8.68;;;;;;;;;;5054064;28;20033;-62
2022/06/19 10:22:14;;;;;;;39.33;4.55;;;;;;;;;;5051622;28;20045;-63
2022/06/19 10:24:59;;;;;;;41.13;5.30;;;;;;;;;;5049448;28;20045;-64
2022/06/19 10:27:38;;;;;;;57.78;7.05;;;;;;;;;;5049802;28;20128;-63
2022/06/19 10:30:11;;;;;;;42.55;5.45;;;;;;;;;;5046900;28;20045;-62
2022/06/19 10:32:56;;;;;;;45.50;4.80;;;;;;;;;;5049713;28;20464;-67
2022/06/19 10:35:52;;;;;;;26.33;4.15;;;;;;;;;;5049493;28;20497;-68
2022/06/19 10:38:22;;;;;;;46.58;5.13;;;;;;;;;;5044509;28;20060;-68
2022/06/19 10:40:54;;;;;;;73.97;7.22;;;;;;;;;;5051525;28;20051;-66
2022/06/19 10:43:21;;;;;;;;;;;;;;;;;;5054296;28;20033;-64
2022/06/19 10:45:50;;;;;;;40.38;4.32;;;;;;;;;;5052882;28;19924;-68
2022/06/19 10:48:22;;;;;;;68.68;6.55;;;;;;;;;;5049685;28;20759;-64
2022/06/19 10:51:06;;;;;;;59.03;5.70;;;;;;;;;;5049907;28;20040;-65
2022/06/19 10:53:33;;;;;;;61.13;8.27;;;;;;;;;;5049974;28;20049;-63
2022/06/19 10:56:19;;;;;;;35.80;4.55;;;;;;;;;;5050476;28;20060;-64
2022/06/19 10:58:46;;;;;;;107.57;10.15;;;;;;;;;;5045345;28;20135;-64
2022/06/19 11:04:06;;;;;;;98.78;9.27;;;;;;;;;;5051823;28;20065;-64
2022/06/19 11:04:10;;;;;;;51.97;5.28;;;;;;;;;;5050784;28;20417;-63
2022/06/19 11:06:42;;;;;;;15.10;3.17;;;;;;;;;;5048717;28;20045;-63
2022/06/19 11:09:17;;;;;;;80.78;7.15;;;;;;;;;;5049813;28;20048;-63
2022/06/19 11:11:44;;;;;;;24.80;3.55;;;;;;;;;;5048229;28;20037;-63
2022/06/19 11:14:30;;;;;;;21.15;3.17;;;;;;;;;;5049844;28;20049;-63
2022/06/19 11:16:58;;;;;;;73.45;6.70;;;;;;;;;;5049823;28;20107;-63
2022/06/19 11:19:33;;;;;;;40.72;4.72;;;;;;;;;;5052877;28;20080;-63
2022/06/19 11:22:30;;;;;;;19.90;3.50;;;;;;;;;;5050818;28;20045;-63
2022/06/19 11:25:13;;;;;;;31.33;3.75;;;;;;;;;;5049115;28;20477;-65
2022/06/19 11:27:48;;;;;;;21.33;3.10;;;;;;;;;;5047977;28;20564;-66
2022/06/19 11:30:15;;;;;;;160.75;11.80;;;;;;;;;;5048163;28;20041;-72
2022/06/19 11:32:48;;;;;;;46.00;4.90;;;;;;;;;;5049426;28;20041;-71
2022/06/19 11:35:15;;;;;;;254.98;17.30;;;;;;;;;;5048776;28;20536;-70
2022/06/19 11:37:48;;;;;;;57.70;5.35;;;;;;;;;;5050645;28;20049;-74
2022/06/19 11:40:19;;;;;;;51.97;5.80;;;;;;;;;;5050951;28;20048;-79
2022/06/19 11:42:48;;;;;;;26.02;3.45;;;;;;;;;;5047415;28;20048;-77
2022/06/19 11:45:15;;;;;;;45.22;5.03;;;;;;;;;;5049078;28;20045;-73
2022/06/19 11:47:43;;;;;;;63.35;5.65;;;;;;;;;;5049387;28;20060;-77
2022/06/19 11:50:12;;;;;;;73.32;6.88;;;;;;;;;;5048882;28;20108;-80
2022/06/19 11:52:48;;;;;;;695.28;52.78;;;;;;;;;;5064035;28;20224;-79
2022/06/19 11:55:20;;;;;;;35.88;3.88;;;;;;;;;;5051127;28;20076;-72
2022/06/19 11:57:47;;;;;;;;;;;;;;;;;;5048789;28;20033;-68
2022/06/19 12:00:22;;;;;;;133.32;10.48;;;;;;;;;;5048555;28;20347;-67
2022/06/19 12:02:52;;;;;;;25.45;3.63;;;;;;;;;;5047031;28;20045;-67
2022/06/19 12:05:21;;;;;;;16.13;3.00;;;;;;;;;;5047642;28;20037;-70
2022/06/19 12:07:48;;;;;;;69.57;6.85;;;;;;;;;;5049630;28;20045;-70
2022/06/19 12:10:15;;;;;;;27.08;3.53;;;;;;;;;;5050870;28;20037;-74
2022/06/19 12:12:51;;;;;;;20.55;3.15;;;;;;;;;;5049023;28;20040;-79
2022/06/19 12:15:22;;;;;;;22.20;3.63;;;;;;;;;;5047252;28;20401;-79
2022/06/19 12:17:55;;;;;;;98.50;8.13;;;;;;;;;;5048106;28;20114;-75
2022/06/19 12:20:21;;;;;;;;;;;;;;;;;;5047995;28;20582;-76
2022/06/19 12:23:12;;;;;;;55.83;6.07;;;;;;;;;;5048225;28;19921;-71
2022/06/19 12:25:47;;;;;;;34.92;4.38;;;;;;;;;;5048081;28;20048;-70
2022/06/19 12:28:20;;;;;;;44.85;4.82;;;;;;;;;;5052414;28;20045;-78
2022/06/19 12:30:50;;;;;;;24.50;3.53;;;;;;;;;;5056540;28;20048;-81
2022/06/19 12:33:31;;;;;;;45.70;5.07;;;;;;;;;;5050495;28;20040;-70
2022/06/19 12:35:59;;;;;;;47.58;4.45;;;;;;;;;;5047986;28;20041;-74
2022/06/19 12:38:30;;;;;;;56.05;6.78;;;;;;;;;;5046815;28;20055;-65
2022/06/19 12:40:59;;;;;;;106.57;8.35;;;;;;;;;;5047864;28;20038;-66
2022/06/19 12:43:30;;;;;;;37.58;4.18;;;;;;;;;;5051705;28;20068;-67
2022/06/19 12:45:58;;;;;;;25.98;3.55;;;;;;;;;;5047578;28;20045;-63
2022/06/19 12:48:45;;;;;;;59.25;5.10;;;;;;;;;;5046563;28;20068;-73
2022/06/19 12:51:48;;;;;;;40.35;4.88;;;;;;;;;;5004383;28;20128;-66
2022/06/19 12:54:14;;;;;;;147.45;9.90;;;;;;;;;;4929932;29;20074;-66
2022/06/19 12:56:43;;;;;;;47.53;4.93;;;;;;;;;;4932141;29;20117;-66
2022/06/19 12:59:19;;;;;;;20.92;3.40;;;;;;;;;;4930873;29;20059;-67
2022/06/19 13:01:46;;;;;;;55.28;5.43;;;;;;;;;;4930969;29;20117;-67
2022/06/19 13:04:18;;;;;;;22.40;3.30;;;;;;;;;;4931663;29;20146;-66
2022/06/19 13:07:03;;;;;;;23.70;3.78;;;;;;;;;;4931287;29;20528;-67
2022/06/19 13:09:32;;;;;;;87.53;7.82;;;;;;;;;;4929212;29;20103;-65
2022/06/19 13:12:02;;;;;;;73.05;5.90;;;;;;;;;;4927426;29;20098;-66
2022/06/19 13:14:51;;;;;;;32.53;4.53;;;;;;;;;;4927341;29;20050;-68
2022/06/19 13:17:25;;;;;;;32.28;3.42;;;;;;;;;;4914867;29;20058;-66
2022/06/19 13:19:54;;;;;;;46.30;5.18;;;;;;;;;;4929132;29;20048;-65
2022/06/19 13:22:24;;;;;;;32.67;4.25;;;;;;;;;;4930667;29;20115;-66
2022/06/19 13:24:50;;;;;;;42.85;5.05;;;;;;;;;;4930769;29;20043;-66
2022/06/19 13:27:17;;;;;;;36.03;3.80;;;;;;;;;;4934118;28;20068;-66
2022/06/19 13:29:50;;;;;;;28.25;4.30;;;;;;;;;;5040635;28;20044;-66
2022/06/19 13:32:36;;;;;;;72.88;5.75;;;;;;;;;;5046241;28;20038;-66
2022/06/19 13:35:22;;;;;;;74.40;6.70;;;;;;;;;;5045874;28;20034;-67
2022/06/19 13:37:57;;;;;;;85.70;6.60;;;;;;;;;;5046497;28;20044;-67
2022/06/19 13:40:28;;;;;;;19.92;3.58;;;;;;;;;;5050036;28;20064;-64
2022/06/19 13:42:55;;;;;;;65.93;6.18;;;;;;;;;;5046429;28;20083;-66
2022/06/19 13:45:40;;;;;;;612.28;55.08;;;;;;;;;;5048355;28;20041;-61
2022/06/19 13:48:27;;;;;;;79.70;7.57;;;;;;;;;;5049704;28;20047;-66
2022/06/19 13:50:58;;;;;;;89.38;8.07;;;;;;;;;;5041180;28;20041;-66
2022/06/19 13:53:32;;;;;;;49.67;5.35;;;;;;;;;;5049859;28;20041;-68
2022/06/19 13:56:07;;;;;;;47.50;6.00;;;;;;;;;;5052566;28;20040;-67
2022/06/19 13:58:43;;;;;;;49.67;4.65;;;;;;;;;;5054629;28;20401;-67
2022/06/19 14:01:22;;;;;;;190.55;14.05;;;;;;;;;;5051977;28;20394;-68
2022/06/19 14:07:15;;;;;;;63.97;6.55;;;;;;;;;;5049689;28;20127;-66
2022/06/19 14:10:00;;;;;;;58.40;5.63;;;;;;;;;;5049247;28;20067;-67
2022/06/19 14:12:30;;;;;;;34.17;3.90;;;;;;;;;;5049855;28;20511;-69
2022/06/19 14:15:02;;;;;;;60.50;6.43;;;;;;;;;;5049569;28;20464;-68
2022/06/19 14:17:39;;;;;;;43.15;5.55;;;;;;;;;;5049477;28;20037;-68
2022/06/19 14:20:35;;;;;;;37.60;4.80;;;;;;;;;;5035815;28;20474;-66
2022/06/19 14:23:14;;;;;;;39.60;4.82;;;;;;;;;;5041018;28;20053;-67
2022/06/19 14:25:46;;;;;;;91.07;8.27;;;;;;;;;;5049642;28;20048;-66
2022/06/19 14:28:31;;;;;;;35.15;4.47;;;;;;;;;;5051725;28;20055;-67
2022/06/19 14:30:59;;;;;;;41.72;4.60;;;;;;;;;;5049265;28;20037;-67
2022/06/19 14:33:29;;;;;;;193.70;15.77;;;;;;;;;;5049073;28;20068;-66
2022/06/19 14:36:16;;;;;;;32.08;4.45;;;;;;;;;;5048873;28;20048;-67
2022/06/19 14:38:42;;;;;;;30.05;4.25;;;;;;;;;;5042176;28;20073;-67
2022/06/19 14:41:24;;;;;;;241.75;18.67;;;;;;;;;;5050324;28;20452;-67
2022/06/19 14:44:04;;;;;;;78.75;7.13;;;;;;;;;;5050283;28;20049;-66
2022/06/19 14:46:30;;;;;;;45.15;5.22;;;;;;;;;;5049378;28;20072;-67
2022/06/19 14:48:57;;;;;;;92.10;8.70;;;;;;;;;;5048318;28;20052;-65
2022/06/19 14:51:42;;;;;;;69.75;6.90;;;;;;;;;;5048907;28;20041;-67
2022/06/19 14:54:15;;;;;;;46.28;5.03;;;;;;;;;;5048649;28;20044;-66
2022/06/19 14:56:50;;;;;;;45.33;5.00;;;;;;;;;;5048098;28;20032;-65
2022/06/19 14:59:24;;;;;;;60.10;5.82;;;;;;;;;;5053037;28;20048;-67